sensor_id;sensor_type;location;lat;lon;timestamp;temperature;humidity
4081;DHT22;2055;50.074;8.436;2023-03-05T00:01:51;5.30;99.90
4081;DHT22;2055;50.074;8.436;2023-03-05T00:04:16;5.30;99.90
4081;DHT22;2055;50.074;8.436;2023-03-05T00:06:42;5.20;99.90
4081;DHT22;2055;50.074;8.436;2023-03-05T00:09:07;5.20;99.90
4081;DHT22;2055;50.074;8.436;2023-03-05T00:11:33;5.20;99.90
4081;DHT22;2055;50.074;8.436;2023-03-05T00:14:00;5.20;99.90
4081;DHT22;2055;50.074;8.436;2023-03-05T00:16:27;5.20;99.90
4081;DHT22;2055;50.074;8.436;2023-03-05T00:18:54;5.20;99.90
4081;DHT22;2055;50.074;8.436;2023-03-05T00:21:25;5.20;99.90
4081;DHT22;2055;50.074;8.436;2023-03-05T00:23:52;5.20;99.90
4081;DHT22;2055;50.074;8.436;2023-03-05T00:26:18;5.20;99.90
4081;DHT22;2055;50.074;8.436;2023-03-05T00:28:44;5.20;99.90
4081;DHT22;2055;50.074;8.436;2023-03-05T00:31:17;5.60;99.90
4081;DHT22;2055;50.074;8.436;2023-03-05T00:33:44;5.20;99.90
4081;DHT22;2055;50.074;8.436;2023-03-05T00:36:09;5.20;99.90
4081;DHT22;2055;50.074;8.436;2023-03-05T00:38:35;5.20;99.90
4081;DHT22;2055;50.074;8.436;2023-03-05T00:41:01;5.20;99.90
4081;DHT22;2055;50.074;8.436;2023-03-05T00:43:28;5.10;99.90
4081;DHT22;2055;50.074;8.436;2023-03-05T00:45:53;5.20;99.90
4081;DHT22;2055;50.074;8.436;2023-03-05T00:48:19;5.20;99.90
4081;DHT22;2055;50.074;8.436;2023-03-05T00:50:46;5.10;99.90
4081;DHT22;2055;50.074;8.436;2023-03-05T00:53:12;5.10;99.90
4081;DHT22;2055;50.074;8.436;2023-03-05T00:55:37;5.10;99.90
4081;DHT22;2055;50.074;8.436;2023-03-05T00:58:03;5.10;99.90
4081;DHT22;2055;50.074;8.436;2023-03-05T01:00:28;5.10;99.90
4081;DHT22;2055;50.074;8.436;2023-03-05T01:02:54;5.10;99.90
4081;DHT22;2055;50.074;8.436;2023-03-05T01:05:20;5.10;99.90
4081;DHT22;2055;50.074;8.436;2023-03-05T01:07:45;5.10;99.90
4081;DHT22;2055;50.074;8.436;2023-03-05T01:10:11;5.10;99.90
4081;DHT22;2055;50.074;8.436;2023-03-05T01:12:37;5.00;99.90
4081;DHT22;2055;50.074;8.436;2023-03-05T01:15:04;5.00;99.90
4081;DHT22;2055;50.074;8.436;2023-03-05T01:17:29;5.00;99.90
4081;DHT22;2055;50.074;8.436;2023-03-05T01:19:55;5.00;99.90
4081;DHT22;2055;50.074;8.436;2023-03-05T01:22:21;5.00;99.90
4081;DHT22;2055;50.074;8.436;2023-03-05T01:24:46;5.00;99.90
4081;DHT22;2055;50.074;8.436;2023-03-05T01:27:12;5.00;99.90
4081;DHT22;2055;50.074;8.436;2023-03-05T01:29:37;5.00;99.90
4081;DHT22;2055;50.074;8.436;2023-03-05T01:32:03;5.00;99.90
4081;DHT22;2055;50.074;8.436;2023-03-05T01:34:28;5.00;99.90
4081;DHT22;2055;50.074;8.436;2023-03-05T01:36:54;5.00;99.90
4081;DHT22;2055;50.074;8.436;2023-03-05T01:39:19;5.00;99.90
4081;DHT22;2055;50.074;8.436;2023-03-05T01:41:45;5.00;99.90
4081;DHT22;2055;50.074;8.436;2023-03-05T01:44:21;5.00;99.90
4081;DHT22;2055;50.074;8.436;2023-03-05T01:46:47;5.00;99.90
4081;DHT22;2055;50.074;8.436;2023-03-05T01:51:56;5.00;99.90
4081;DHT22;2055;50.074;8.436;2023-03-05T01:54:36;5.00;99.90
4081;DHT22;2055;50.074;8.436;2023-03-05T01:57:15;5.00;99.90
4081;DHT22;2055;50.074;8.436;2023-03-05T01:59:43;5.00;99.90
4081;DHT22;2055;50.074;8.436;2023-03-05T02:02:11;5.00;99.90
4081;DHT22;2055;50.074;8.436;2023-03-05T02:04:45;5.00;99.90
4081;DHT22;2055;50.074;8.436;2023-03-05T02:07:11;4.90;99.90
4081;DHT22;2055;50.074;8.436;2023-03-05T02:09:39;4.90;99.90
4081;DHT22;2055;50.074;8.436;2023-03-05T02:12:06;4.90;99.90
4081;DHT22;2055;50.074;8.436;2023-03-05T02:14:32;4.90;99.90
4081;DHT22;2055;50.074;8.436;2023-03-05T02:16:58;4.80;99.90
4081;DHT22;2055;50.074;8.436;2023-03-05T02:19:24;4.80;99.90
4081;DHT22;2055;50.074;8.436;2023-03-05T02:21:50;4.80;99.90
4081;DHT22;2055;50.074;8.436;2023-03-05T02:24:33;4.80;99.90
4081;DHT22;2055;50.074;8.436;2023-03-05T02:27:00;4.80;99.90
4081;DHT22;2055;50.074;8.436;2023-03-05T02:29:26;4.70;99.90
4081;DHT22;2055;50.074;8.436;2023-03-05T02:31:53;4.70;99.90
4081;DHT22;2055;50.074;8.436;2023-03-05T02:34:21;4.70;99.90
4081;DHT22;2055;50.074;8.436;2023-03-05T02:36:47;4.70;99.90
4081;DHT22;2055;50.074;8.436;2023-03-05T02:39:15;4.60;99.90
4081;DHT22;2055;50.074;8.436;2023-03-05T02:41:41;4.60;99.90
4081;DHT22;2055;50.074;8.436;2023-03-05T02:44:06;4.60;99.90
4081;DHT22;2055;50.074;8.436;2023-03-05T02:46:32;4.90;99.90
4081;DHT22;2055;50.074;8.436;2023-03-05T02:48:58;4.60;99.90
4081;DHT22;2055;50.074;8.436;2023-03-05T02:51:23;4.60;99.90
4081;DHT22;2055;50.074;8.436;2023-03-05T02:53:49;4.60;99.90
4081;DHT22;2055;50.074;8.436;2023-03-05T02:56:15;4.60;99.90
4081;DHT22;2055;50.074;8.436;2023-03-05T02:58:40;4.60;99.90
4081;DHT22;2055;50.074;8.436;2023-03-05T03:01:08;4.60;99.90
4081;DHT22;2055;50.074;8.436;2023-03-05T03:03:35;4.60;99.90
4081;DHT22;2055;50.074;8.436;2023-03-05T03:06:00;4.60;99.90
4081;DHT22;2055;50.074;8.436;2023-03-05T03:08:26;4.60;99.90
4081;DHT22;2055;50.074;8.436;2023-03-05T03:10:52;4.60;99.90
4081;DHT22;2055;50.074;8.436;2023-03-05T03:13:17;4.60;99.90
4081;DHT22;2055;50.074;8.436;2023-03-05T03:15:43;4.60;99.90
4081;DHT22;2055;50.074;8.436;2023-03-05T03:18:09;4.60;99.90
4081;DHT22;2055;50.074;8.436;2023-03-05T03:20:37;4.60;99.90
4081;DHT22;2055;50.074;8.436;2023-03-05T03:23:03;4.60;99.90
4081;DHT22;2055;50.074;8.436;2023-03-05T03:25:29;4.50;99.90
4081;DHT22;2055;50.074;8.436;2023-03-05T03:27:54;4.50;99.90
4081;DHT22;2055;50.074;8.436;2023-03-05T03:30:20;4.50;99.90
4081;DHT22;2055;50.074;8.436;2023-03-05T03:32:46;4.80;99.90
4081;DHT22;2055;50.074;8.436;2023-03-05T03:35:11;4.60;99.90
4081;DHT22;2055;50.074;8.436;2023-03-05T03:37:37;4.50;99.90
4081;DHT22;2055;50.074;8.436;2023-03-05T03:40:04;4.50;99.90
4081;DHT22;2055;50.074;8.436;2023-03-05T03:42:30;4.50;99.90
4081;DHT22;2055;50.074;8.436;2023-03-05T03:44:55;4.50;99.90
4081;DHT22;2055;50.074;8.436;2023-03-05T03:47:24;4.60;99.90
4081;DHT22;2055;50.074;8.436;2023-03-05T03:49:53;4.60;99.90
4081;DHT22;2055;50.074;8.436;2023-03-05T03:52:19;4.50;99.90
4081;DHT22;2055;50.074;8.436;2023-03-05T03:54:44;4.50;99.90
4081;DHT22;2055;50.074;8.436;2023-03-05T03:57:10;4.60;99.90
4081;DHT22;2055;50.074;8.436;2023-03-05T03:59:35;4.60;99.90
4081;DHT22;2055;50.074;8.436;2023-03-05T04:02:11;4.60;99.90
4081;DHT22;2055;50.074;8.436;2023-03-05T04:04:36;4.50;99.90
4081;DHT22;2055;50.074;8.436;2023-03-05T04:07:02;4.60;99.90
4081;DHT22;2055;50.074;8.436;2023-03-05T04:09:27;4.50;99.90
4081;DHT22;2055;50.074;8.436;2023-03-05T04:11:53;4.50;99.90
4081;DHT22;2055;50.074;8.436;2023-03-05T04:14:18;4.50;99.90
4081;DHT22;2055;50.074;8.436;2023-03-05T04:16:44;4.60;99.90
4081;DHT22;2055;50.074;8.436;2023-03-05T04:19:09;4.50;99.90
4081;DHT22;2055;50.074;8.436;2023-03-05T04:21:35;4.50;99.90
4081;DHT22;2055;50.074;8.436;2023-03-05T04:24:01;4.50;99.90
4081;DHT22;2055;50.074;8.436;2023-03-05T04:26:26;4.50;99.90
4081;DHT22;2055;50.074;8.436;2023-03-05T04:28:52;4.50;99.90
4081;DHT22;2055;50.074;8.436;2023-03-05T04:31:17;4.50;99.90
4081;DHT22;2055;50.074;8.436;2023-03-05T04:33:44;4.50;99.90
4081;DHT22;2055;50.074;8.436;2023-03-05T04:36:10;4.50;99.90
4081;DHT22;2055;50.074;8.436;2023-03-05T04:38:35;4.40;99.90
4081;DHT22;2055;50.074;8.436;2023-03-05T04:41:01;4.40;99.90
4081;DHT22;2055;50.074;8.436;2023-03-05T04:43:26;4.40;99.90
4081;DHT22;2055;50.074;8.436;2023-03-05T04:45:54;4.40;99.90
4081;DHT22;2055;50.074;8.436;2023-03-05T04:48:19;4.70;99.90
4081;DHT22;2055;50.074;8.436;2023-03-05T04:50:45;4.40;99.90
4081;DHT22;2055;50.074;8.436;2023-03-05T04:53:11;4.40;99.90
4081;DHT22;2055;50.074;8.436;2023-03-05T04:55:36;4.40;99.90
4081;DHT22;2055;50.074;8.436;2023-03-05T04:58:02;4.40;99.90
4081;DHT22;2055;50.074;8.436;2023-03-05T05:00:27;4.30;99.90
4081;DHT22;2055;50.074;8.436;2023-03-05T05:02:53;4.60;99.90
4081;DHT22;2055;50.074;8.436;2023-03-05T05:05:21;4.30;99.90
4081;DHT22;2055;50.074;8.436;2023-03-05T05:07:47;4.30;99.90
4081;DHT22;2055;50.074;8.436;2023-03-05T05:10:14;4.20;99.90
4081;DHT22;2055;50.074;8.436;2023-03-05T05:12:39;4.20;99.90
4081;DHT22;2055;50.074;8.436;2023-03-05T05:15:06;4.30;99.90
4081;DHT22;2055;50.074;8.436;2023-03-05T05:17:32;4.20;99.90
4081;DHT22;2055;50.074;8.436;2023-03-05T05:20:01;4.20;99.90
4081;DHT22;2055;50.074;8.436;2023-03-05T05:22:29;4.10;99.90
4081;DHT22;2055;50.074;8.436;2023-03-05T05:24:55;4.10;99.90
4081;DHT22;2055;50.074;8.436;2023-03-05T05:27:20;4.10;99.90
4081;DHT22;2055;50.074;8.436;2023-03-05T05:29:46;4.00;99.90
4081;DHT22;2055;50.074;8.436;2023-03-05T05:32:15;4.10;99.90
4081;DHT22;2055;50.074;8.436;2023-03-05T05:34:41;4.00;99.90
4081;DHT22;2055;50.074;8.436;2023-03-05T05:37:06;4.00;99.90
4081;DHT22;2055;50.074;8.436;2023-03-05T05:39:32;4.00;99.90
4081;DHT22;2055;50.074;8.436;2023-03-05T05:41:57;4.00;99.90
4081;DHT22;2055;50.074;8.436;2023-03-05T05:44:23;4.00;99.90
4081;DHT22;2055;50.074;8.436;2023-03-05T05:46:48;4.00;99.90
4081;DHT22;2055;50.074;8.436;2023-03-05T05:49:14;4.20;99.90
4081;DHT22;2055;50.074;8.436;2023-03-05T05:51:40;4.00;99.90
4081;DHT22;2055;50.074;8.436;2023-03-05T05:54:05;3.90;99.90
4081;DHT22;2055;50.074;8.436;2023-03-05T05:56:31;3.90;99.90
4081;DHT22;2055;50.074;8.436;2023-03-05T05:58:56;4.00;99.90
4081;DHT22;2055;50.074;8.436;2023-03-05T06:01:24;3.80;99.90
4081;DHT22;2055;50.074;8.436;2023-03-05T06:03:50;3.80;99.90
4081;DHT22;2055;50.074;8.436;2023-03-05T06:06:18;3.80;99.90
4081;DHT22;2055;50.074;8.436;2023-03-05T06:08:44;3.80;99.90
4081;DHT22;2055;50.074;8.436;2023-03-05T06:11:10;3.80;99.90
4081;DHT22;2055;50.074;8.436;2023-03-05T06:13:36;3.90;99.90
4081;DHT22;2055;50.074;8.436;2023-03-05T06:16:04;4.00;99.90
4081;DHT22;2055;50.074;8.436;2023-03-05T06:18:30;3.90;99.90
4081;DHT22;2055;50.074;8.436;2023-03-05T06:20:58;4.00;99.90
4081;DHT22;2055;50.074;8.436;2023-03-05T06:23:25;4.00;99.90
4081;DHT22;2055;50.074;8.436;2023-03-05T06:25:51;4.00;99.90
4081;DHT22;2055;50.074;8.436;2023-03-05T06:28:17;4.00;99.90
4081;DHT22;2055;50.074;8.436;2023-03-05T06:30:42;4.00;99.90
4081;DHT22;2055;50.074;8.436;2023-03-05T06:33:08;4.30;99.90
4081;DHT22;2055;50.074;8.436;2023-03-05T06:35:33;4.00;99.90
4081;DHT22;2055;50.074;8.436;2023-03-05T06:37:59;3.90;99.90
4081;DHT22;2055;50.074;8.436;2023-03-05T06:40:25;4.10;99.90
4081;DHT22;2055;50.074;8.436;2023-03-05T06:42:50;3.90;99.90
4081;DHT22;2055;50.074;8.436;2023-03-05T06:45:16;4.00;99.90
4081;DHT22;2055;50.074;8.436;2023-03-05T06:47:41;3.90;99.90
4081;DHT22;2055;50.074;8.436;2023-03-05T06:50:07;4.00;99.90
4081;DHT22;2055;50.074;8.436;2023-03-05T06:52:33;4.00;99.90
4081;DHT22;2055;50.074;8.436;2023-03-05T06:54:58;4.00;99.90
4081;DHT22;2055;50.074;8.436;2023-03-05T06:57:24;4.00;99.90
4081;DHT22;2055;50.074;8.436;2023-03-05T06:59:50;4.00;99.90
4081;DHT22;2055;50.074;8.436;2023-03-05T07:02:15;4.20;99.90
4081;DHT22;2055;50.074;8.436;2023-03-05T07:04:43;4.00;99.90
4081;DHT22;2055;50.074;8.436;2023-03-05T07:07:08;4.00;99.90
4081;DHT22;2055;50.074;8.436;2023-03-05T07:09:34;4.00;99.90
4081;DHT22;2055;50.074;8.436;2023-03-05T07:11:59;4.00;99.90
4081;DHT22;2055;50.074;8.436;2023-03-05T07:14:25;4.10;99.90
4081;DHT22;2055;50.074;8.436;2023-03-05T07:16:50;4.10;99.90
4081;DHT22;2055;50.074;8.436;2023-03-05T07:19:16;4.10;99.90
4081;DHT22;2055;50.074;8.436;2023-03-05T07:21:41;4.10;99.90
4081;DHT22;2055;50.074;8.436;2023-03-05T07:24:07;4.10;99.90
4081;DHT22;2055;50.074;8.436;2023-03-05T07:26:33;4.00;99.90
4081;DHT22;2055;50.074;8.436;2023-03-05T07:28:59;4.10;99.90
4081;DHT22;2055;50.074;8.436;2023-03-05T07:31:26;4.00;99.90
4081;DHT22;2055;50.074;8.436;2023-03-05T07:33:55;4.10;99.90
4081;DHT22;2055;50.074;8.436;2023-03-05T07:36:22;4.10;99.90
4081;DHT22;2055;50.074;8.436;2023-03-05T07:38:47;4.00;99.90
4081;DHT22;2055;50.074;8.436;2023-03-05T07:41:16;4.10;99.90
4081;DHT22;2055;50.074;8.436;2023-03-05T07:43:47;4.10;99.90
4081;DHT22;2055;50.074;8.436;2023-03-05T07:46:14;4.10;99.90
4081;DHT22;2055;50.074;8.436;2023-03-05T07:48:40;4.10;99.90
4081;DHT22;2055;50.074;8.436;2023-03-05T07:51:09;4.10;99.90
4081;DHT22;2055;50.074;8.436;2023-03-05T07:53:34;4.20;99.90
4081;DHT22;2055;50.074;8.436;2023-03-05T07:56:00;4.10;99.90
4081;DHT22;2055;50.074;8.436;2023-03-05T07:58:26;3.80;99.90
4081;DHT22;2055;50.074;8.436;2023-03-05T08:00:51;4.10;99.90
4081;DHT22;2055;50.074;8.436;2023-03-05T08:03:17;4.30;99.90
4081;DHT22;2055;50.074;8.436;2023-03-05T08:05:42;4.10;99.90
4081;DHT22;2055;50.074;8.436;2023-03-05T08:08:08;4.00;99.90
4081;DHT22;2055;50.074;8.436;2023-03-05T08:10:34;4.10;99.90
4081;DHT22;2055;50.074;8.436;2023-03-05T08:13:00;4.10;99.90
4081;DHT22;2055;50.074;8.436;2023-03-05T08:15:26;4.10;99.90
4081;DHT22;2055;50.074;8.436;2023-03-05T08:17:52;4.40;99.90
4081;DHT22;2055;50.074;8.436;2023-03-05T08:20:18;4.10;99.90
4081;DHT22;2055;50.074;8.436;2023-03-05T08:22:44;4.20;99.90
4081;DHT22;2055;50.074;8.436;2023-03-05T08:25:10;4.30;99.90
4081;DHT22;2055;50.074;8.436;2023-03-05T08:27:42;4.30;99.90
4081;DHT22;2055;50.074;8.436;2023-03-05T08:30:11;4.30;99.90
4081;DHT22;2055;50.074;8.436;2023-03-05T08:32:37;4.20;99.90
4081;DHT22;2055;50.074;8.436;2023-03-05T08:35:03;4.40;99.90
4081;DHT22;2055;50.074;8.436;2023-03-05T08:37:29;4.50;99.90
4081;DHT22;2055;50.074;8.436;2023-03-05T08:39:55;4.50;99.90
4081;DHT22;2055;50.074;8.436;2023-03-05T08:42:21;4.50;99.90
4081;DHT22;2055;50.074;8.436;2023-03-05T08:44:46;4.50;99.90
4081;DHT22;2055;50.074;8.436;2023-03-05T08:47:12;4.50;99.90
4081;DHT22;2055;50.074;8.436;2023-03-05T08:49:38;4.70;99.90
4081;DHT22;2055;50.074;8.436;2023-03-05T08:52:03;4.70;99.90
4081;DHT22;2055;50.074;8.436;2023-03-05T08:54:29;4.80;99.90
4081;DHT22;2055;50.074;8.436;2023-03-05T08:56:54;6.50;99.90
4081;DHT22;2055;50.074;8.436;2023-03-05T08:59:20;4.90;99.90
4081;DHT22;2055;50.074;8.436;2023-03-05T09:01:45;4.90;99.90
4081;DHT22;2055;50.074;8.436;2023-03-05T09:04:11;5.00;99.90
4081;DHT22;2055;50.074;8.436;2023-03-05T09:06:36;5.00;99.90
4081;DHT22;2055;50.074;8.436;2023-03-05T09:09:07;4.90;99.90
4081;DHT22;2055;50.074;8.436;2023-03-05T09:11:34;4.90;99.90
4081;DHT22;2055;50.074;8.436;2023-03-05T09:14:04;4.80;99.90
4081;DHT22;2055;50.074;8.436;2023-03-05T09:16:30;5.00;99.90
4081;DHT22;2055;50.074;8.436;2023-03-05T09:18:57;5.00;99.90
4081;DHT22;2055;50.074;8.436;2023-03-05T09:21:23;5.00;99.90
4081;DHT22;2055;50.074;8.436;2023-03-05T09:23:48;5.10;99.90
4081;DHT22;2055;50.074;8.436;2023-03-05T09:26:15;5.10;99.90
4081;DHT22;2055;50.074;8.436;2023-03-05T09:28:43;5.00;99.90
4081;DHT22;2055;50.074;8.436;2023-03-05T09:31:10;4.90;99.90
4081;DHT22;2055;50.074;8.436;2023-03-05T09:33:36;5.00;99.90
4081;DHT22;2055;50.074;8.436;2023-03-05T09:36:03;5.00;99.90
4081;DHT22;2055;50.074;8.436;2023-03-05T09:38:29;5.20;99.90
4081;DHT22;2055;50.074;8.436;2023-03-05T09:41:01;5.30;99.90
4081;DHT22;2055;50.074;8.436;2023-03-05T09:49:50;5.40;99.90
4081;DHT22;2055;50.074;8.436;2023-03-05T09:55:03;5.40;99.90
4081;DHT22;2055;50.074;8.436;2023-03-05T09:57:47;5.40;99.90
4081;DHT22;2055;50.074;8.436;2023-03-05T10:00:38;5.40;99.90
4081;DHT22;2055;50.074;8.436;2023-03-05T10:03:21;5.30;99.90
4081;DHT22;2055;50.074;8.436;2023-03-05T10:06:08;5.30;99.90
4081;DHT22;2055;50.074;8.436;2023-03-05T10:08:45;5.40;99.90
4081;DHT22;2055;50.074;8.436;2023-03-05T10:14:12;5.30;99.90
4081;DHT22;2055;50.074;8.436;2023-03-05T10:19:52;5.40;99.90
4081;DHT22;2055;50.074;8.436;2023-03-05T10:22:23;5.30;99.90
4081;DHT22;2055;50.074;8.436;2023-03-05T10:25:16;5.20;99.90
4081;DHT22;2055;50.074;8.436;2023-03-05T10:27:49;5.40;99.90
4081;DHT22;2055;50.074;8.436;2023-03-05T10:30:32;5.30;99.90
4081;DHT22;2055;50.074;8.436;2023-03-05T10:35:50;5.00;99.90
4081;DHT22;2055;50.074;8.436;2023-03-05T10:41:24;5.00;99.90
4081;DHT22;2055;50.074;8.436;2023-03-05T10:44:08;4.90;99.90
4081;DHT22;2055;50.074;8.436;2023-03-05T10:46:39;4.80;99.90
4081;DHT22;2055;50.074;8.436;2023-03-05T10:49:17;4.90;99.90
4081;DHT22;2055;50.074;8.436;2023-03-05T10:51:55;5.10;99.90
4081;DHT22;2055;50.074;8.436;2023-03-05T10:54:29;5.10;99.90
4081;DHT22;2055;50.074;8.436;2023-03-05T10:57:12;5.20;99.90
4081;DHT22;2055;50.074;8.436;2023-03-05T11:05:44;5.10;99.90
4081;DHT22;2055;50.074;8.436;2023-03-05T11:08:30;4.70;99.90
4081;DHT22;2055;50.074;8.436;2023-03-05T11:16:27;5.00;99.90
4081;DHT22;2055;50.074;8.436;2023-03-05T11:19:24;5.10;99.90
4081;DHT22;2055;50.074;8.436;2023-03-05T11:22:20;5.20;99.90
4081;DHT22;2055;50.074;8.436;2023-03-05T11:27:34;5.40;99.90
4081;DHT22;2055;50.074;8.436;2023-03-05T11:30:01;5.40;99.90
4081;DHT22;2055;50.074;8.436;2023-03-05T11:32:28;5.70;99.90
4081;DHT22;2055;50.074;8.436;2023-03-05T11:34:54;5.80;99.90
4081;DHT22;2055;50.074;8.436;2023-03-05T11:37:29;5.80;99.90
4081;DHT22;2055;50.074;8.436;2023-03-05T11:42:32;5.80;99.90
4081;DHT22;2055;50.074;8.436;2023-03-05T11:44:59;6.10;99.90
4081;DHT22;2055;50.074;8.436;2023-03-05T11:47:36;6.50;99.90
4081;DHT22;2055;50.074;8.436;2023-03-05T11:50:34;6.50;99.90
4081;DHT22;2055;50.074;8.436;2023-03-05T11:53:05;6.70;99.90
4081;DHT22;2055;50.074;8.436;2023-03-05T11:55:48;7.60;99.90
4081;DHT22;2055;50.074;8.436;2023-03-05T11:58:26;7.10;99.90
4081;DHT22;2055;50.074;8.436;2023-03-05T12:00:53;7.10;99.90
4081;DHT22;2055;50.074;8.436;2023-03-05T12:03:23;7.40;99.90
4081;DHT22;2055;50.074;8.436;2023-03-05T12:08:39;7.40;99.90
4081;DHT22;2055;50.074;8.436;2023-03-05T12:11:14;7.00;99.90
4081;DHT22;2055;50.074;8.436;2023-03-05T12:13:45;7.00;99.90
4081;DHT22;2055;50.074;8.436;2023-03-05T12:16:23;6.60;99.90
4081;DHT22;2055;50.074;8.436;2023-03-05T12:19:22;6.80;99.90
4081;DHT22;2055;50.074;8.436;2023-03-05T12:21:55;6.70;99.90
4081;DHT22;2055;50.074;8.436;2023-03-05T12:29:28;6.50;99.90
4081;DHT22;2055;50.074;8.436;2023-03-05T12:31:55;6.30;99.90
4081;DHT22;2055;50.074;8.436;2023-03-05T12:37:13;6.40;99.90
4081;DHT22;2055;50.074;8.436;2023-03-05T12:47:37;5.90;99.90
4081;DHT22;2055;50.074;8.436;2023-03-05T12:50:04;5.80;99.90
4081;DHT22;2055;50.074;8.436;2023-03-05T12:52:32;5.60;99.90
4081;DHT22;2055;50.074;8.436;2023-03-05T12:57:36;5.60;99.90
4081;DHT22;2055;50.074;8.436;2023-03-05T13:00:07;5.60;99.90
4081;DHT22;2055;50.074;8.436;2023-03-05T13:02:41;5.60;99.90
4081;DHT22;2055;50.074;8.436;2023-03-05T13:07:49;5.70;99.90
4081;DHT22;2055;50.074;8.436;2023-03-05T13:10:27;5.60;99.90
4081;DHT22;2055;50.074;8.436;2023-03-05T13:12:55;5.70;99.90
4081;DHT22;2055;50.074;8.436;2023-03-05T13:15:22;5.70;99.90
4081;DHT22;2055;50.074;8.436;2023-03-05T13:18:00;5.80;99.90
4081;DHT22;2055;50.074;8.436;2023-03-05T13:20:38;5.90;99.90
4081;DHT22;2055;50.074;8.436;2023-03-05T13:23:22;5.80;99.90
4081;DHT22;2055;50.074;8.436;2023-03-05T13:26:11;5.80;99.90
4081;DHT22;2055;50.074;8.436;2023-03-05T13:28:40;6.10;99.90
4081;DHT22;2055;50.074;8.436;2023-03-05T13:31:25;6.40;99.90
4081;DHT22;2055;50.074;8.436;2023-03-05T13:33:55;6.50;99.90
4081;DHT22;2055;50.074;8.436;2023-03-05T13:36:23;6.40;99.90
4081;DHT22;2055;50.074;8.436;2023-03-05T13:38:49;6.50;99.90
4081;DHT22;2055;50.074;8.436;2023-03-05T13:41:24;6.50;99.90
4081;DHT22;2055;50.074;8.436;2023-03-05T13:43:58;6.30;99.90
4081;DHT22;2055;50.074;8.436;2023-03-05T13:46:36;6.10;99.90
4081;DHT22;2055;50.074;8.436;2023-03-05T13:49:23;6.10;99.90
4081;DHT22;2055;50.074;8.436;2023-03-05T13:51:51;6.00;99.90
4081;DHT22;2055;50.074;8.436;2023-03-05T13:54:18;6.00;99.90
4081;DHT22;2055;50.074;8.436;2023-03-05T13:56:56;6.10;99.90
4081;DHT22;2055;50.074;8.436;2023-03-05T13:59:31;6.20;99.90
4081;DHT22;2055;50.074;8.436;2023-03-05T14:01:59;6.20;99.90
4081;DHT22;2055;50.074;8.436;2023-03-05T14:04:28;6.10;99.90
4081;DHT22;2055;50.074;8.436;2023-03-05T14:09:44;6.20;99.90
4081;DHT22;2055;50.074;8.436;2023-03-05T14:14:59;6.20;99.90
4081;DHT22;2055;50.074;8.436;2023-03-05T14:22:35;6.00;99.90
4081;DHT22;2055;50.074;8.436;2023-03-05T14:25:03;6.00;99.90
4081;DHT22;2055;50.074;8.436;2023-03-05T14:27:35;5.90;99.90
4081;DHT22;2055;50.074;8.436;2023-03-05T14:30:02;5.90;99.90
4081;DHT22;2055;50.074;8.436;2023-03-05T14:32:34;5.90;99.90
4081;DHT22;2055;50.074;8.436;2023-03-05T14:35:01;5.90;99.90
4081;DHT22;2055;50.074;8.436;2023-03-05T14:37:35;5.90;99.90
4081;DHT22;2055;50.074;8.436;2023-03-05T14:40:04;5.90;99.90
4081;DHT22;2055;50.074;8.436;2023-03-05T14:42:35;5.90;99.90
4081;DHT22;2055;50.074;8.436;2023-03-05T14:45:17;5.90;99.90
4081;DHT22;2055;50.074;8.436;2023-03-05T14:47:43;5.90;99.90
4081;DHT22;2055;50.074;8.436;2023-03-05T14:50:17;6.00;99.90
4081;DHT22;2055;50.074;8.436;2023-03-05T14:52:45;5.90;99.90
4081;DHT22;2055;50.074;8.436;2023-03-05T14:55:22;5.90;99.90
4081;DHT22;2055;50.074;8.436;2023-03-05T14:57:49;5.80;99.90
4081;DHT22;2055;50.074;8.436;2023-03-05T15:00:22;5.70;99.90
4081;DHT22;2055;50.074;8.436;2023-03-05T15:02:48;5.70;99.90
4081;DHT22;2055;50.074;8.436;2023-03-05T15:05:15;5.70;99.90
4081;DHT22;2055;50.074;8.436;2023-03-05T15:07:42;5.70;99.90
4081;DHT22;2055;50.074;8.436;2023-03-05T15:10:09;5.70;99.90
4081;DHT22;2055;50.074;8.436;2023-03-05T15:12:36;5.70;99.90
4081;DHT22;2055;50.074;8.436;2023-03-05T15:15:02;5.70;99.90
4081;DHT22;2055;50.074;8.436;2023-03-05T15:17:33;5.70;99.90
4081;DHT22;2055;50.074;8.436;2023-03-05T15:19:59;6.00;99.90
4081;DHT22;2055;50.074;8.436;2023-03-05T15:22:25;5.60;99.90
4081;DHT22;2055;50.074;8.436;2023-03-05T15:24:51;5.50;99.90
4081;DHT22;2055;50.074;8.436;2023-03-05T15:27:17;5.60;99.90
4081;DHT22;2055;50.074;8.436;2023-03-05T15:29:43;5.60;99.90
4081;DHT22;2055;50.074;8.436;2023-03-05T15:32:09;5.60;99.90
4081;DHT22;2055;50.074;8.436;2023-03-05T15:34:35;5.60;99.90
4081;DHT22;2055;50.074;8.436;2023-03-05T15:37:01;5.60;99.90
4081;DHT22;2055;50.074;8.436;2023-03-05T15:39:27;5.60;99.90
4081;DHT22;2055;50.074;8.436;2023-03-05T15:41:54;5.60;99.90
4081;DHT22;2055;50.074;8.436;2023-03-05T15:44:20;5.50;99.90
4081;DHT22;2055;50.074;8.436;2023-03-05T15:46:46;5.60;99.90
4081;DHT22;2055;50.074;8.436;2023-03-05T15:49:12;5.50;99.90
4081;DHT22;2055;50.074;8.436;2023-03-05T15:51:37;5.50;99.90
4081;DHT22;2055;50.074;8.436;2023-03-05T15:54:04;5.50;99.90
4081;DHT22;2055;50.074;8.436;2023-03-05T15:56:29;5.50;99.90
4081;DHT22;2055;50.074;8.436;2023-03-05T15:58:55;5.50;99.90
4081;DHT22;2055;50.074;8.436;2023-03-05T16:01:21;5.50;99.90
4081;DHT22;2055;50.074;8.436;2023-03-05T16:03:50;5.40;99.90
4081;DHT22;2055;50.074;8.436;2023-03-05T16:06:18;5.40;99.90
4081;DHT22;2055;50.074;8.436;2023-03-05T16:08:50;5.40;99.90
4081;DHT22;2055;50.074;8.436;2023-03-05T16:11:17;5.40;99.90
4081;DHT22;2055;50.074;8.436;2023-03-05T16:13:43;5.40;99.90
4081;DHT22;2055;50.074;8.436;2023-03-05T16:16:09;5.40;99.90
4081;DHT22;2055;50.074;8.436;2023-03-05T16:18:37;5.40;99.90
4081;DHT22;2055;50.074;8.436;2023-03-05T16:21:04;5.40;99.90
4081;DHT22;2055;50.074;8.436;2023-03-05T16:23:30;5.40;99.90
4081;DHT22;2055;50.074;8.436;2023-03-05T16:25:55;5.40;99.90
4081;DHT22;2055;50.074;8.436;2023-03-05T16:28:21;5.30;99.90
4081;DHT22;2055;50.074;8.436;2023-03-05T16:30:54;5.30;99.90
4081;DHT22;2055;50.074;8.436;2023-03-05T16:33:20;5.30;99.90
4081;DHT22;2055;50.074;8.436;2023-03-05T16:35:46;5.30;99.90
4081;DHT22;2055;50.074;8.436;2023-03-05T16:38:11;5.30;99.90
4081;DHT22;2055;50.074;8.436;2023-03-05T16:40:37;5.20;99.90
4081;DHT22;2055;50.074;8.436;2023-03-05T16:43:03;5.20;99.90
4081;DHT22;2055;50.074;8.436;2023-03-05T16:45:29;5.20;99.90
4081;DHT22;2055;50.074;8.436;2023-03-05T16:47:55;5.20;99.90
4081;DHT22;2055;50.074;8.436;2023-03-05T16:50:21;5.20;99.90
4081;DHT22;2055;50.074;8.436;2023-03-05T16:52:46;5.10;99.90
4081;DHT22;2055;50.074;8.436;2023-03-05T16:55:12;5.10;99.90
4081;DHT22;2055;50.074;8.436;2023-03-05T16:57:39;5.10;99.90
4081;DHT22;2055;50.074;8.436;2023-03-05T17:00:05;5.10;99.90
4081;DHT22;2055;50.074;8.436;2023-03-05T17:02:33;5.00;99.90
4081;DHT22;2055;50.074;8.436;2023-03-05T17:04:59;5.00;99.90
4081;DHT22;2055;50.074;8.436;2023-03-05T17:07:25;5.00;99.90
4081;DHT22;2055;50.074;8.436;2023-03-05T17:09:51;5.00;99.90
4081;DHT22;2055;50.074;8.436;2023-03-05T17:12:18;5.00;99.90
4081;DHT22;2055;50.074;8.436;2023-03-05T17:14:43;5.00;99.90
4081;DHT22;2055;50.074;8.436;2023-03-05T17:17:09;5.00;99.90
4081;DHT22;2055;50.074;8.436;2023-03-05T17:19:35;4.90;99.90
4081;DHT22;2055;50.074;8.436;2023-03-05T17:22:01;4.90;99.90
4081;DHT22;2055;50.074;8.436;2023-03-05T17:24:27;4.90;99.90
4081;DHT22;2055;50.074;8.436;2023-03-05T17:26:54;4.90;99.90
4081;DHT22;2055;50.074;8.436;2023-03-05T17:29:19;4.80;99.90
4081;DHT22;2055;50.074;8.436;2023-03-05T17:31:49;4.80;99.90
4081;DHT22;2055;50.074;8.436;2023-03-05T17:34:15;4.80;99.90
4081;DHT22;2055;50.074;8.436;2023-03-05T17:36:40;4.80;99.90
4081;DHT22;2055;50.074;8.436;2023-03-05T17:39:06;4.80;99.90